Pacific — WCO7745 — position and weather

sailwx.info

Track history (hours):
 
Tides and Currents Weather Stations Pressure Air Temp Water Temp Dewpoint Dewpoint Depression Visibility Wind Speed Wind Dir Waves Ship Positions

Pacific

Owner: WESTERN TOWBOAT CO, SEATTLE, WA. More information available from US FCC via Universal Licensing System and Coast Guard Vessel Documentation Center.

Last reported at 2017-Nov-18 04:59 UTC. Time now 2017-Nov-19 16:17 UTC.
Position N 47°39' W 122°22'.

; draft 4 m.

Type: Tug. MMSI: 366980170.

Date/timePositionNaut miles runAvg speedWind from/ knotsBaromVisibWave heightAir tempDewpointWater temp
2017-Nov-18 04:59N 47°39' W 122°22'2 4.0
2017-Nov-18 04:30N 47°40' W 122°24'3 6.0
2017-Nov-18 04:00N 47°37' W 122°24'5 9.0
2017-Nov-18 03:30N 47°33' W 122°21'0 0.0
2017-Nov-18 03:00N 47°33' W 122°21'1 2.9
2017-Nov-18 02:30N 47°35' W 122°22'2 3.8
2017-Nov-18 02:00N 47°36' W 122°23'3 6.0
2017-Nov-18 01:30N 47°38' W 122°26'3 5.5
2017-Nov-18 01:00N 47°40' W 122°28'3 5.8
2017-Nov-18 00:30N 47°43' W 122°28'3 5.8
2017-Nov-18 00:00N 47°46' W 122°27'3 5.9
2017-Nov-17 23:30N 47°49' W 122°28'3 6.5
2017-Nov-17 23:00N 47°52' W 122°29'3 6.3
2017-Nov-17 22:30N 47°55' W 122°30'4 8.0
2017-Nov-17 22:00N 47°58' W 122°35'27 6.5
2017-Nov-17 17:55N 48°24' W 122°45'3 6.3
2017-Nov-17 17:30N 48°26' W 122°45'4 7.3
2017-Nov-17 17:00N 48°30' W 122°44'4 7.6
2017-Nov-17 16:30N 48°34' W 122°45'4 7.5
2017-Nov-17 16:00N 48°37' W 122°45'4 7.1
2017-Nov-17 15:30N 48°41' W 122°44'3 6.1
2017-Nov-17 15:00N 48°44' W 122°46'13 6.4
2017-Nov-17 12:58N 48°51' W 123°02'4 5.8
2017-Nov-17 12:21N 48°53' W 123°06'2 6.1
2017-Nov-17 11:59N 48°55' W 123°09'5 5.7
2017-Nov-17 11:08N 48°58' W 123°14'1 5.8
2017-Nov-17 10:59N 48°58' W 123°15'4 6.2
2017-Nov-17 10:25N 49°01' W 123°20'4 6.4
2017-Nov-17 09:48N 49°03' W 123°24'2 5.9
2017-Nov-17 09:30N 49°05' W 123°25'3 5.6
2017-Nov-17 08:58N 49°08' W 123°27'3 6.1
2017-Nov-17 08:24N 49°10' W 123°30'3 6.2
2017-Nov-17 07:57N 49°13' W 123°32'3 5.9
2017-Nov-17 07:30N 49°15' W 123°34'3 5.7
2017-Nov-17 07:00N 49°17' W 123°37'3 5.4
2017-Nov-17 06:29N 49°20' W 123°39'1 0.1
2017-Nov-16 19:05N 49°20' W 123°38'1 9.1
2017-Nov-16 18:58N 49°19' W 123°37'6 9.0
2017-Nov-16 18:16N 49°14' W 123°31'4 8.2
2017-Nov-16 17:46N 49°10' W 123°27'3 7.9
2017-Nov-16 17:26N 49°08' W 123°25'4 8.4
2017-Nov-16 17:00N 49°05' W 123°22'5 8.3
2017-Nov-16 16:25N 49°02' W 123°16'3 8.0
2017-Nov-16 15:59N 48°60' W 123°13'4 7.5
2017-Nov-16 15:30N 48°57' W 123°09'9 8.2
2017-Nov-16 14:22N 48°51' W 122°58'6 8.9
2017-Nov-16 13:43N 48°47' W 122°51'3 8.9
2017-Nov-16 13:22N 48°46' W 122°47'3 9.2
2017-Nov-16 13:00N 48°43' W 122°44'4 8.7
2017-Nov-16 12:30N 48°39' W 122°43'5 9.6
2017-Nov-16 12:00N 48°34' W 122°45'510.3
2017-Nov-16 11:30N 48°29' W 122°44'5 9.8
2017-Nov-16 11:00N 48°24' W 122°44'23 6.1
2017-Nov-16 07:10N 48°01' W 122°37'2 7.5
2017-Nov-16 06:57N 47°60' W 122°36'3 7.4
2017-Nov-16 06:30N 47°57' W 122°32'4 8.0
2017-Nov-16 06:00N 47°55' W 122°28'4 8.9
2017-Nov-16 05:30N 47°50' W 122°27'4 8.8
2017-Nov-16 05:00N 47°46' W 122°25'5 9.3
2017-Nov-16 04:30N 47°41' W 122°27'4 8.4
2017-Nov-16 04:01N 47°37' W 122°25'3 5.4
2017-Nov-16 03:30N 47°36' W 122°22'0 0.0
2017-Nov-16 03:00N 47°36' W 122°22'0 0.4
2017-Nov-16 02:30N 47°36' W 122°22'0 0.1
2017-Nov-16 02:00N 47°36' W 122°22'4 7.4
2017-Nov-16 01:30N 47°38' W 122°26'2 4.0
2017-Nov-16 01:00N 47°40' W 122°24'1 2.8
2017-Nov-16 00:30N 47°39' W 122°22'0 0.0
2017-Nov-16 00:01N 47°39' W 122°22'0 0.0
2017-Nov-15 23:30N 47°39' W 122°22'1 1.8
2017-Nov-15 23:00N 47°39' W 122°21'0 0.1
2017-Nov-15 22:30N 47°39' W 122°21'1 1.7
2017-Nov-15 22:00N 47°39' W 122°22'  
2017-Nov-10 23:40N 47°39' W 122°22'1 6.1
2017-Nov-10 23:30N 47°40' W 122°23'2 4.6
2017-Nov-10 23:00N 47°40' W 122°27'510.0
2017-Nov-10 22:30N 47°36' W 122°22'0 0.2
2017-Nov-10 22:00N 47°36' W 122°22'1 2.5
2017-Nov-10 21:30N 47°36' W 122°24'4 7.6
2017-Nov-10 21:00N 47°32' W 122°26'4 8.2
2017-Nov-10 20:30N 47°28' W 122°24'4 8.2
2017-Nov-10 20:00N 47°25' W 122°22'3 7.0
2017-Nov-10 19:30N 47°21' W 122°23'4 8.0
2017-Nov-10 19:00N 47°18' W 122°27'2 3.9
2017-Nov-10 18:29N 47°17' W 122°24'0 0.0
2017-Nov-10 08:16N 47°17' W 122°24'2 6.3
2017-Nov-10 08:00N 47°16' W 122°26'0 0.1
2017-Nov-10 07:30N 47°16' W 122°26'2 1.7
2017-Nov-10 06:21N 47°17' W 122°23'1 3.2
2017-Nov-10 06:00N 47°17' W 122°25'2 3.7
2017-Nov-10 05:30N 47°18' W 122°27'3 6.9
2017-Nov-10 05:00N 47°21' W 122°25'3 6.4
2017-Nov-10 04:30N 47°24' W 122°23'4 7.5
2017-Nov-10 04:00N 47°27' W 122°25'4 7.8
2017-Nov-10 03:30N 47°31' W 122°27'4 7.6
2017-Nov-10 03:00N 47°35' W 122°28'4 7.1
2017-Nov-10 02:30N 47°38' W 122°28'3 6.6
2017-Nov-10 02:00N 47°42' W 122°28'3 6.5
2017-Nov-10 01:30N 47°45' W 122°27'3 6.6
2017-Nov-10 01:00N 47°48' W 122°28'3 6.7
2017-Nov-10 00:30N 47°51' W 122°29'3 6.4
2017-Nov-10 00:00N 47°54' W 122°30'3 6.4
2017-Nov-09 23:29N 47°57' W 122°33'21 5.0
2017-Nov-09 19:18N 48°16' W 122°48'3 7.4
2017-Nov-09 18:50N 48°19' W 122°47'3 7.6
2017-Nov-09 18:24N 48°22' W 122°46'3 7.5
2017-Nov-09 18:00N 48°25' W 122°45'3 6.7
2017-Nov-09 17:30N 48°29' W 122°44'3 5.5
2017-Nov-09 17:00N 48°31' W 122°45'3 5.2
2017-Nov-09 16:30N 48°34' W 122°45'2 3.6
2017-Nov-09 16:00N 48°36' W 122°45'1 2.8
2017-Nov-09 15:30N 48°37' W 122°45'2 4.3
2017-Nov-09 15:00N 48°39' W 122°44'2 4.1
2017-Nov-09 14:30N 48°41' W 122°45'3 5.8
2017-Nov-09 14:00N 48°42' W 122°49'4 7.2
2017-Nov-09 13:30N 48°44' W 122°54'4 7.3
2017-Nov-09 12:59N 48°45' W 122°59'3 7.3
2017-Nov-09 12:30N 48°45' W 123°04'4 7.3
2017-Nov-09 12:00N 48°45' W 123°10'3 5.0
2017-Nov-09 11:30N 48°46' W 123°13'0 0.1
2017-Nov-09 10:59N 48°46' W 123°13'0 0.2
2017-Nov-09 10:30N 48°46' W 123°13'0 0.0
2017-Nov-09 10:00N 48°46' W 123°13'0 0.0
2017-Nov-09 09:30N 48°46' W 123°13'0 0.3
2017-Nov-09 09:00N 48°46' W 123°13'0 0.2
2017-Nov-09 08:18N 48°46' W 123°13'0 0.0
2017-Nov-09 08:00N 48°46' W 123°13'0 0.0
2017-Nov-09 07:29N 48°46' W 123°13'0 0.0
2017-Nov-09 06:57N 48°46' W 123°13'0 0.0
2017-Nov-09 06:28N 48°46' W 123°13'0 0.2
2017-Nov-09 06:00N 48°46' W 123°13'0 0.7
2017-Nov-09 05:30N 48°47' W 123°13'2 2.9
2017-Nov-09 04:59N 48°46' W 123°11'2 3.8
2017-Nov-09 04:30N 48°45' W 123°09'3 5.0
2017-Nov-09 04:00N 48°44' W 123°05'2 4.7
2017-Nov-09 03:29N 48°45' W 123°01'3 5.7
2017-Nov-09 03:00N 48°45' W 122°57'3 6.5
2017-Nov-09 02:30N 48°44' W 122°53'4 8.0
2017-Nov-09 02:00N 48°41' W 122°47'4 7.2
2017-Nov-09 01:30N 48°39' W 122°44'4 8.0
2017-Nov-09 01:00N 48°35' W 122°45'4 8.2
2017-Nov-09 00:30N 48°31' W 122°44'4 8.2
2017-Nov-09 00:00N 48°27' W 122°44'6 8.2
2017-Nov-08 23:18N 48°21' W 122°45'4 7.7
2017-Nov-08 22:44N 48°17' W 122°47'2 7.4
2017-Nov-08 22:29N 48°15' W 122°48'15 8.9
2017-Nov-08 20:45N 48°02' W 122°37'310.2
2017-Nov-08 20:27N 47°59' W 122°35'510.0
2017-Nov-08 20:00N 47°56' W 122°30'5 9.6
2017-Nov-08 19:30N 47°51' W 122°27'4 8.7
2017-Nov-08 19:00N 47°47' W 122°26'4 8.7
2017-Nov-08 18:30N 47°43' W 122°26'4 8.6
2017-Nov-08 18:00N 47°38' W 122°26'4 8.1
2017-Nov-08 17:30N 47°35' W 122°22'0 0.5
2017-Nov-08 17:00N 47°36' W 122°23'5 9.9
2017-Nov-08 16:30N 47°40' W 122°26'3 5.4
2017-Nov-08 16:00N 47°40' W 122°22'0 0.7
2017-Nov-08 15:30N 47°39' W 122°22'0 0.0
2017-Nov-08 15:00N 47°39' W 122°22'0 0.0
2017-Nov-08 14:30N 47°39' W 122°22'0 0.0
2017-Nov-08 14:00N 47°39' W 122°22'  
Track history (hours):
 
Tides and Currents Weather Stations Pressure Air Temp Water Temp Dewpoint Dewpoint Depression Visibility Wind Speed Wind Dir Waves Ship Positions

Pacific

Owner: WESTERN TOWBOAT CO, SEATTLE, WA. More information available from US FCC via Universal Licensing System and Coast Guard Vessel Documentation Center.

Last reported at 2017-Nov-18 04:59 UTC. Time now 2017-Nov-19 16:17 UTC.
Position N 47°39' W 122°22'.

; draft 4 m.

Type: Tug. MMSI: 366980170.

Date/timePositionNaut miles runAvg speedWind from/ knotsBaromVisibWave heightAir tempDewpointWater temp
2017-Nov-18 04:59N 47°39' W 122°22'2 4.0
2017-Nov-18 04:30N 47°40' W 122°24'3 6.0
2017-Nov-18 04:00N 47°37' W 122°24'5 9.0
2017-Nov-18 03:30N 47°33' W 122°21'0 0.0
2017-Nov-18 03:00N 47°33' W 122°21'1 2.9
2017-Nov-18 02:30N 47°35' W 122°22'2 3.8
2017-Nov-18 02:00N 47°36' W 122°23'3 6.0
2017-Nov-18 01:30N 47°38' W 122°26'3 5.5
2017-Nov-18 01:00N 47°40' W 122°28'3 5.8
2017-Nov-18 00:30N 47°43' W 122°28'3 5.8
2017-Nov-18 00:00N 47°46' W 122°27'3 5.9
2017-Nov-17 23:30N 47°49' W 122°28'3 6.5
2017-Nov-17 23:00N 47°52' W 122°29'3 6.3
2017-Nov-17 22:30N 47°55' W 122°30'4 8.0
2017-Nov-17 22:00N 47°58' W 122°35'27 6.5
2017-Nov-17 17:55N 48°24' W 122°45'3 6.3
2017-Nov-17 17:30N 48°26' W 122°45'4 7.3
2017-Nov-17 17:00N 48°30' W 122°44'4 7.6
2017-Nov-17 16:30N 48°34' W 122°45'4 7.5
2017-Nov-17 16:00N 48°37' W 122°45'4 7.1
2017-Nov-17 15:30N 48°41' W 122°44'3 6.1
2017-Nov-17 15:00N 48°44' W 122°46'13 6.4
2017-Nov-17 12:58N 48°51' W 123°02'4 5.8
2017-Nov-17 12:21N 48°53' W 123°06'2 6.1
2017-Nov-17 11:59N 48°55' W 123°09'5 5.7
2017-Nov-17 11:08N 48°58' W 123°14'1 5.8
2017-Nov-17 10:59N 48°58' W 123°15'4 6.2
2017-Nov-17 10:25N 49°01' W 123°20'4 6.4
2017-Nov-17 09:48N 49°03' W 123°24'2 5.9
2017-Nov-17 09:30N 49°05' W 123°25'3 5.6
2017-Nov-17 08:58N 49°08' W 123°27'3 6.1
2017-Nov-17 08:24N 49°10' W 123°30'3 6.2
2017-Nov-17 07:57N 49°13' W 123°32'3 5.9
2017-Nov-17 07:30N 49°15' W 123°34'3 5.7
2017-Nov-17 07:00N 49°17' W 123°37'3 5.4
2017-Nov-17 06:29N 49°20' W 123°39'1 0.1
2017-Nov-16 19:05N 49°20' W 123°38'1 9.1
2017-Nov-16 18:58N 49°19' W 123°37'6 9.0
2017-Nov-16 18:16N 49°14' W 123°31'4 8.2
2017-Nov-16 17:46N 49°10' W 123°27'3 7.9
2017-Nov-16 17:26N 49°08' W 123°25'4 8.4
2017-Nov-16 17:00N 49°05' W 123°22'5 8.3
2017-Nov-16 16:25N 49°02' W 123°16'3 8.0
2017-Nov-16 15:59N 48°60' W 123°13'4 7.5
2017-Nov-16 15:30N 48°57' W 123°09'9 8.2
2017-Nov-16 14:22N 48°51' W 122°58'6 8.9
2017-Nov-16 13:43N 48°47' W 122°51'3 8.9
2017-Nov-16 13:22N 48°46' W 122°47'3 9.2
2017-Nov-16 13:00N 48°43' W 122°44'4 8.7
2017-Nov-16 12:30N 48°39' W 122°43'5 9.6
2017-Nov-16 12:00N 48°34' W 122°45'510.3
2017-Nov-16 11:30N 48°29' W 122°44'5 9.8
2017-Nov-16 11:00N 48°24' W 122°44'23 6.1
2017-Nov-16 07:10N 48°01' W 122°37'2 7.5
2017-Nov-16 06:57N 47°60' W 122°36'3 7.4
2017-Nov-16 06:30N 47°57' W 122°32'4 8.0
2017-Nov-16 06:00N 47°55' W 122°28'4 8.9
2017-Nov-16 05:30N 47°50' W 122°27'4 8.8
2017-Nov-16 05:00N 47°46' W 122°25'5 9.3
2017-Nov-16 04:30N 47°41' W 122°27'4 8.4
2017-Nov-16 04:01N 47°37' W 122°25'3 5.4
2017-Nov-16 03:30N 47°36' W 122°22'0 0.0
2017-Nov-16 03:00N 47°36' W 122°22'0 0.4
2017-Nov-16 02:30N 47°36' W 122°22'0 0.1
2017-Nov-16 02:00N 47°36' W 122°22'4 7.4
2017-Nov-16 01:30N 47°38' W 122°26'2 4.0
2017-Nov-16 01:00N 47°40' W 122°24'1 2.8
2017-Nov-16 00:30N 47°39' W 122°22'0 0.0
2017-Nov-16 00:01N 47°39' W 122°22'0 0.0
2017-Nov-15 23:30N 47°39' W 122°22'1 1.8
2017-Nov-15 23:00N 47°39' W 122°21'0 0.1
2017-Nov-15 22:30N 47°39' W 122°21'1 1.7
2017-Nov-15 22:00N 47°39' W 122°22'  
2017-Nov-10 23:40N 47°39' W 122°22'1 6.1
2017-Nov-10 23:30N 47°40' W 122°23'2 4.6
2017-Nov-10 23:00N 47°40' W 122°27'510.0
2017-Nov-10 22:30N 47°36' W 122°22'0 0.2
2017-Nov-10 22:00N 47°36' W 122°22'1 2.5
2017-Nov-10 21:30N 47°36' W 122°24'4 7.6
2017-Nov-10 21:00N 47°32' W 122°26'4 8.2
2017-Nov-10 20:30N 47°28' W 122°24'4 8.2
2017-Nov-10 20:00N 47°25' W 122°22'3 7.0
2017-Nov-10 19:30N 47°21' W 122°23'4 8.0
2017-Nov-10 19:00N 47°18' W 122°27'2 3.9
2017-Nov-10 18:29N 47°17' W 122°24'0 0.0
2017-Nov-10 08:16N 47°17' W 122°24'2 6.3
2017-Nov-10 08:00N 47°16' W 122°26'0 0.1
2017-Nov-10 07:30N 47°16' W 122°26'2 1.7
2017-Nov-10 06:21N 47°17' W 122°23'1 3.2
2017-Nov-10 06:00N 47°17' W 122°25'2 3.7
2017-Nov-10 05:30N 47°18' W 122°27'3 6.9
2017-Nov-10 05:00N 47°21' W 122°25'3 6.4
2017-Nov-10 04:30N 47°24' W 122°23'4 7.5
2017-Nov-10 04:00N 47°27' W 122°25'4 7.8
2017-Nov-10 03:30N 47°31' W 122°27'4 7.6
2017-Nov-10 03:00N 47°35' W 122°28'4 7.1
2017-Nov-10 02:30N 47°38' W 122°28'3 6.6
2017-Nov-10 02:00N 47°42' W 122°28'3 6.5
2017-Nov-10 01:30N 47°45' W 122°27'3 6.6
2017-Nov-10 01:00N 47°48' W 122°28'3 6.7
2017-Nov-10 00:30N 47°51' W 122°29'3 6.4
2017-Nov-10 00:00N 47°54' W 122°30'3 6.4
2017-Nov-09 23:29N 47°57' W 122°33'21 5.0
2017-Nov-09 19:18N 48°16' W 122°48'3 7.4
2017-Nov-09 18:50N 48°19' W 122°47'3 7.6
2017-Nov-09 18:24N 48°22' W 122°46'3 7.5
2017-Nov-09 18:00N 48°25' W 122°45'3 6.7
2017-Nov-09 17:30N 48°29' W 122°44'3 5.5
2017-Nov-09 17:00N 48°31' W 122°45'3 5.2
2017-Nov-09 16:30N 48°34' W 122°45'2 3.6
2017-Nov-09 16:00N 48°36' W 122°45'1 2.8
2017-Nov-09 15:30N 48°37' W 122°45'2 4.3
2017-Nov-09 15:00N 48°39' W 122°44'2 4.1
2017-Nov-09 14:30N 48°41' W 122°45'3 5.8
2017-Nov-09 14:00N 48°42' W 122°49'4 7.2
2017-Nov-09 13:30N 48°44' W 122°54'4 7.3
2017-Nov-09 12:59N 48°45' W 122°59'3 7.3
2017-Nov-09 12:30N 48°45' W 123°04'4 7.3
2017-Nov-09 12:00N 48°45' W 123°10'3 5.0
2017-Nov-09 11:30N 48°46' W 123°13'0 0.1
2017-Nov-09 10:59N 48°46' W 123°13'0 0.2
2017-Nov-09 10:30N 48°46' W 123°13'0 0.0
2017-Nov-09 10:00N 48°46' W 123°13'0 0.0
2017-Nov-09 09:30N 48°46' W 123°13'0 0.3
2017-Nov-09 09:00N 48°46' W 123°13'0 0.2
2017-Nov-09 08:18N 48°46' W 123°13'0 0.0
2017-Nov-09 08:00N 48°46' W 123°13'0 0.0
2017-Nov-09 07:29N 48°46' W 123°13'0 0.0
2017-Nov-09 06:57N 48°46' W 123°13'0 0.0
2017-Nov-09 06:28N 48°46' W 123°13'0 0.2
2017-Nov-09 06:00N 48°46' W 123°13'0 0.7
2017-Nov-09 05:30N 48°47' W 123°13'2 2.9
2017-Nov-09 04:59N 48°46' W 123°11'2 3.8
2017-Nov-09 04:30N 48°45' W 123°09'3 5.0
2017-Nov-09 04:00N 48°44' W 123°05'2 4.7
2017-Nov-09 03:29N 48°45' W 123°01'3 5.7
2017-Nov-09 03:00N 48°45' W 122°57'3 6.5
2017-Nov-09 02:30N 48°44' W 122°53'4 8.0
2017-Nov-09 02:00N 48°41' W 122°47'4 7.2
2017-Nov-09 01:30N 48°39' W 122°44'4 8.0
2017-Nov-09 01:00N 48°35' W 122°45'4 8.2
2017-Nov-09 00:30N 48°31' W 122°44'4 8.2
2017-Nov-09 00:00N 48°27' W 122°44'6 8.2
2017-Nov-08 23:18N 48°21' W 122°45'4 7.7
2017-Nov-08 22:44N 48°17' W 122°47'2 7.4
2017-Nov-08 22:29N 48°15' W 122°48'15 8.9
2017-Nov-08 20:45N 48°02' W 122°37'310.2
2017-Nov-08 20:27N 47°59' W 122°35'510.0
2017-Nov-08 20:00N 47°56' W 122°30'5 9.6
2017-Nov-08 19:30N 47°51' W 122°27'4 8.7
2017-Nov-08 19:00N 47°47' W 122°26'4 8.7
2017-Nov-08 18:30N 47°43' W 122°26'4 8.6
2017-Nov-08 18:00N 47°38' W 122°26'4 8.1
2017-Nov-08 17:30N 47°35' W 122°22'0 0.5
2017-Nov-08 17:00N 47°36' W 122°23'5 9.9
2017-Nov-08 16:30N 47°40' W 122°26'3 5.4
2017-Nov-08 16:00N 47°40' W 122°22'0 0.7
2017-Nov-08 15:30N 47°39' W 122°22'0 0.0
2017-Nov-08 15:00N 47°39' W 122°22'0 0.0
2017-Nov-08 14:30N 47°39' W 122°22'0 0.0
2017-Nov-08 14:00N 47°39' W 122°22'  

Dump ship's entire track history